![]() |
EMODnet Physics ERDDAP
Easier access to scientific data |
log in|
Brought to you by EMODnet Physics |
| Dataset Title: | NDBC - Collection of dew point temperature (DEWT) TimeSeries - IN SITU MultiPointTimeSeriesObservation
|
| Institution: | NDBC (Dataset ID: TS_DEWT_NDBC) |
| Information: | Summary
| License
| FGDC
| ISO 19115
| Metadata
| Background
| Subset
| Data Access Form
| Make a graph
|
| Name | Last modified | Size | Description | |
|---|---|---|---|---|
| Parent Directory | - | - | ||
| 46082_TS_DEWT_012003.nc | 23-Dec-2024 22:52 | 429330 | ||
| 46082_TS_DEWT_012004.nc | 23-Dec-2024 22:53 | 429365 | ||
| 46082_TS_DEWT_012006.nc | 23-Dec-2024 22:57 | 429340 | ||
| 46082_TS_DEWT_012007.nc | 23-Dec-2024 22:58 | 422057 | ||
| 46082_TS_DEWT_012008.nc | 23-Dec-2024 23:00 | 429364 | ||
| 46082_TS_DEWT_012010.nc | 23-Dec-2024 23:03 | 429359 | ||
| 46082_TS_DEWT_012015.nc | 23-Dec-2024 23:11 | 429364 | ||
| 46082_TS_DEWT_012016.nc | 23-Dec-2024 23:13 | 429368 | ||
| 46082_TS_DEWT_012019.nc | 23-Dec-2024 23:15 | 429365 | ||
| 46082_TS_DEWT_012020.nc | 23-Dec-2024 23:17 | 429366 | ||
| 46082_TS_DEWT_012022.nc | 23-Dec-2024 23:20 | 429371 | ||
| 46082_TS_DEWT_012023.nc | 23-Dec-2024 23:22 | 429573 | ||
| 46082_TS_DEWT_012026.nc | 02-Feb-2026 18:47 | 429233 | ||
| 46082_TS_DEWT_022003.nc | 23-Dec-2024 22:52 | 429069 | ||
| 46082_TS_DEWT_022004.nc | 23-Dec-2024 22:53 | 429463 | ||
| 46082_TS_DEWT_022006.nc | 23-Dec-2024 22:57 | 429499 | ||
| 46082_TS_DEWT_022007.nc | 23-Dec-2024 22:59 | 429572 | ||
| 46082_TS_DEWT_022010.nc | 23-Dec-2024 23:03 | 429569 | ||
| 46082_TS_DEWT_022015.nc | 23-Dec-2024 23:11 | 429572 | ||
| 46082_TS_DEWT_022016.nc | 23-Dec-2024 23:13 | 429571 | ||
| 46082_TS_DEWT_022019.nc | 23-Dec-2024 23:15 | 429569 | ||
| 46082_TS_DEWT_022022.nc | 23-Dec-2024 23:21 | 429568 | ||
| 46082_TS_DEWT_022023.nc | 23-Dec-2024 23:22 | 429571 | ||
| 46082_TS_DEWT_022026.nc | 01-Mar-2026 09:31 | 429567 | ||
| 46082_TS_DEWT_032003.nc | 23-Dec-2024 22:52 | 429571 | ||
| 46082_TS_DEWT_032004.nc | 23-Dec-2024 22:53 | 429571 | ||
| 46082_TS_DEWT_032006.nc | 23-Dec-2024 22:57 | 429569 | ||
| 46082_TS_DEWT_032007.nc | 23-Dec-2024 22:59 | 429404 | ||
| 46082_TS_DEWT_032010.nc | 23-Dec-2024 23:03 | 429569 | ||
| 46082_TS_DEWT_032015.nc | 23-Dec-2024 23:11 | 429571 | ||
| 46082_TS_DEWT_032019.nc | 23-Dec-2024 23:15 | 429567 | ||
| 46082_TS_DEWT_032022.nc | 23-Dec-2024 23:21 | 428008 | ||
| 46082_TS_DEWT_032023.nc | 23-Dec-2024 23:23 | 422964 | ||
| 46082_TS_DEWT_032026.nc | 25-Mar-2026 13:49 | 425733 | ||
| 46082_TS_DEWT_042003.nc | 23-Dec-2024 22:52 | 429684 | ||
| 46082_TS_DEWT_042004.nc | 23-Dec-2024 22:54 | 429689 | ||
| 46082_TS_DEWT_042006.nc | 23-Dec-2024 22:57 | 425492 | ||
| 46082_TS_DEWT_042007.nc | 23-Dec-2024 22:59 | 429203 | ||
| 46082_TS_DEWT_042015.nc | 23-Dec-2024 23:11 | 429364 | ||
| 46082_TS_DEWT_042019.nc | 23-Dec-2024 23:16 | 429694 | ||
| 46082_TS_DEWT_042022.nc | 23-Dec-2024 23:21 | 429690 | ||
| 46082_TS_DEWT_042023.nc | 23-Dec-2024 23:23 | 429689 | ||
| 46082_TS_DEWT_052003.nc | 23-Dec-2024 22:52 | 429694 | ||
| 46082_TS_DEWT_052004.nc | 23-Dec-2024 22:54 | 429694 | ||
| 46082_TS_DEWT_052006.nc | 23-Dec-2024 22:57 | 429695 | ||
| 46082_TS_DEWT_052007.nc | 23-Dec-2024 22:59 | 429698 | ||
| 46082_TS_DEWT_052015.nc | 23-Dec-2024 23:11 | 429687 | ||
| 46082_TS_DEWT_052019.nc | 23-Dec-2024 23:16 | 429693 | ||
| 46082_TS_DEWT_052022.nc | 23-Dec-2024 23:21 | 429694 | ||
| 46082_TS_DEWT_052023.nc | 23-Dec-2024 23:23 | 429694 | ||
| 46082_TS_DEWT_062003.nc | 23-Dec-2024 22:52 | 429688 | ||
| 46082_TS_DEWT_062004.nc | 23-Dec-2024 22:54 | 429912 | ||
| 46082_TS_DEWT_062006.nc | 23-Dec-2024 22:57 | 429606 | ||
| 46082_TS_DEWT_062007.nc | 23-Dec-2024 22:59 | 429916 | ||
| 46082_TS_DEWT_062015.nc | 23-Dec-2024 23:11 | 429625 | ||
| 46082_TS_DEWT_062019.nc | 23-Dec-2024 23:16 | 429429 | ||
| 46082_TS_DEWT_062021.nc | 23-Dec-2024 23:19 | 429913 | ||
| 46082_TS_DEWT_062022.nc | 23-Dec-2024 23:21 | 429913 | ||
| 46082_TS_DEWT_062023.nc | 23-Dec-2024 23:23 | 429914 | ||
| 46082_TS_DEWT_062025.nc | 01-Jul-2025 03:40 | 429913 | ||
| 46082_TS_DEWT_072003.nc | 23-Dec-2024 22:53 | 429913 | ||
| 46082_TS_DEWT_072004.nc | 23-Dec-2024 22:54 | 429913 | ||
| 46082_TS_DEWT_072006.nc | 23-Dec-2024 22:58 | 429910 | ||
| 46082_TS_DEWT_072007.nc | 23-Dec-2024 22:59 | 429913 | ||
| 46082_TS_DEWT_072011.nc | 23-Dec-2024 23:05 | 429911 | ||
| 46082_TS_DEWT_072014.nc | 23-Dec-2024 23:10 | 429649 | ||
| 46082_TS_DEWT_072015.nc | 23-Dec-2024 23:11 | 429914 | ||
| 46082_TS_DEWT_072019.nc | 23-Dec-2024 23:16 | 429912 | ||
| 46082_TS_DEWT_072021.nc | 23-Dec-2024 23:19 | 429910 | ||
| 46082_TS_DEWT_072022.nc | 23-Dec-2024 23:21 | 429914 | ||
| 46082_TS_DEWT_072023.nc | 23-Dec-2024 23:24 | 429910 | ||
| 46082_TS_DEWT_072025.nc | 01-Aug-2025 03:40 | 995366 | ||
| 46082_TS_DEWT_082003.nc | 23-Dec-2024 22:53 | 995607 | ||
| 46082_TS_DEWT_082004.nc | 23-Dec-2024 22:54 | 995726 | ||
| 46082_TS_DEWT_082006.nc | 23-Dec-2024 22:58 | 915730 | ||
| 46082_TS_DEWT_082007.nc | 23-Dec-2024 22:59 | 995237 | ||
| 46082_TS_DEWT_082008.nc | 23-Dec-2024 23:00 | 1143357 | ||
| 46082_TS_DEWT_082009.nc | 23-Dec-2024 23:02 | 919058 | ||
| 46082_TS_DEWT_082011.nc | 23-Dec-2024 23:06 | 995520 | ||
| 46082_TS_DEWT_082012.nc | 23-Dec-2024 23:07 | 995979 | ||
| 46082_TS_DEWT_082014.nc | 23-Dec-2024 23:10 | 994723 | ||
| 46082_TS_DEWT_082015.nc | 23-Dec-2024 23:12 | 995923 | ||
| 46082_TS_DEWT_082018.nc | 23-Dec-2024 23:14 | 993942 | ||
| 46082_TS_DEWT_082019.nc | 23-Dec-2024 23:16 | 995404 | ||
| 46082_TS_DEWT_082021.nc | 23-Dec-2024 23:20 | 1142921 | ||
| 46082_TS_DEWT_082022.nc | 23-Dec-2024 23:22 | 995687 | ||
| 46082_TS_DEWT_082023.nc | 23-Dec-2024 23:24 | 994136 | ||
| 46082_TS_DEWT_082024.nc | 09-Jan-2025 12:06 | 913444 | ||
| 46082_TS_DEWT_082025.nc | 01-Sep-2025 03:46 | 914268 | ||
| 46082_TS_DEWT_092002.nc | 23-Dec-2024 22:51 | 915103 | ||
| 46082_TS_DEWT_092004.nc | 23-Dec-2024 22:54 | 913332 | ||
| 46082_TS_DEWT_092005.nc | 23-Dec-2024 22:56 | 908029 | ||
| 46082_TS_DEWT_092006.nc | 23-Dec-2024 22:58 | 918119 | ||
| 46082_TS_DEWT_092007.nc | 23-Dec-2024 23:00 | 914085 | ||
| 46082_TS_DEWT_092008.nc | 23-Dec-2024 23:01 | 915888 | ||
| 46082_TS_DEWT_092009.nc | 23-Dec-2024 23:02 | 915356 | ||
| 46082_TS_DEWT_092011.nc | 23-Dec-2024 23:06 | 917453 | ||
| 46082_TS_DEWT_092012.nc | 23-Dec-2024 23:07 | 916705 | ||
| 46082_TS_DEWT_092014.nc | 23-Dec-2024 23:10 | 916823 | ||
| 46082_TS_DEWT_092015.nc | 23-Dec-2024 23:12 | 914706 | ||
| 46082_TS_DEWT_092017.nc | 23-Dec-2024 23:13 | 916714 | ||
| 46082_TS_DEWT_092018.nc | 23-Dec-2024 23:15 | 915918 | ||
| 46082_TS_DEWT_092019.nc | 23-Dec-2024 23:16 | 914725 | ||
| 46082_TS_DEWT_092021.nc | 23-Dec-2024 23:20 | 914303 | ||
| 46082_TS_DEWT_092022.nc | 23-Dec-2024 23:22 | 419276 | ||
| 46082_TS_DEWT_092023.nc | 23-Dec-2024 23:25 | 915813 | ||
| 46082_TS_DEWT_092024.nc | 10-Jan-2025 22:18 | 993167 | ||
| 46082_TS_DEWT_092025.nc | 01-Oct-2025 03:10 | 918918 | ||
| 46082_TS_DEWT_102002.nc | 23-Dec-2024 22:51 | 914453 | ||
| 46082_TS_DEWT_102004.nc | 23-Dec-2024 22:55 | 995139 | ||
| 46082_TS_DEWT_102005.nc | 23-Dec-2024 22:56 | 1143110 | ||
| 46082_TS_DEWT_102006.nc | 23-Dec-2024 22:58 | 994208 | ||
| 46082_TS_DEWT_102007.nc | 23-Dec-2024 23:00 | 1142728 | ||
| 46082_TS_DEWT_102008.nc | 23-Dec-2024 23:01 | 994349 | ||
| 46082_TS_DEWT_102009.nc | 23-Dec-2024 23:02 | 992741 | ||
| 46082_TS_DEWT_102011.nc | 23-Dec-2024 23:06 | 1142682 | ||
| 46082_TS_DEWT_102014.nc | 23-Dec-2024 23:10 | 1142854 | ||
| 46082_TS_DEWT_102015.nc | 23-Dec-2024 23:12 | 996167 | ||
| 46082_TS_DEWT_102017.nc | 23-Dec-2024 23:13 | 909198 | ||
| 46082_TS_DEWT_102019.nc | 23-Dec-2024 23:16 | 995731 | ||
| 46082_TS_DEWT_102021.nc | 23-Dec-2024 23:20 | 995381 | ||
| 46082_TS_DEWT_102022.nc | 23-Dec-2024 23:22 | 992876 | ||
| 46082_TS_DEWT_102023.nc | 23-Dec-2024 23:25 | 917654 | ||
| 46082_TS_DEWT_102024.nc | 11-Jan-2025 23:03 | 994246 | ||
| 46082_TS_DEWT_102025.nc | 01-Nov-2025 04:11 | 911427 | ||
| 46082_TS_DEWT_112002.nc | 23-Dec-2024 22:51 | 919034 | ||
| 46082_TS_DEWT_112003.nc | 23-Dec-2024 22:53 | 993350 | ||
| 46082_TS_DEWT_112005.nc | 23-Dec-2024 22:56 | 993719 | ||
| 46082_TS_DEWT_112006.nc | 23-Dec-2024 22:58 | 993928 | ||
| 46082_TS_DEWT_112007.nc | 23-Dec-2024 23:00 | 993952 | ||
| 46082_TS_DEWT_112009.nc | 23-Dec-2024 23:03 | 917750 | ||
| 46082_TS_DEWT_112011.nc | 23-Dec-2024 23:06 | 918745 | ||
| 46082_TS_DEWT_112014.nc | 23-Dec-2024 23:10 | 994250 | ||
| 46082_TS_DEWT_112015.nc | 23-Dec-2024 23:12 | 994958 | ||
| 46082_TS_DEWT_112019.nc | 23-Dec-2024 23:17 | 993828 | ||
| 46082_TS_DEWT_112021.nc | 23-Dec-2024 23:20 | 994659 | ||
| 46082_TS_DEWT_112022.nc | 23-Dec-2024 23:22 | 994875 | ||
| 46082_TS_DEWT_112023.nc | 23-Dec-2024 23:25 | 1142904 | ||
| 46082_TS_DEWT_112025.nc | 01-Dec-2025 05:11 | 1143359 | ||
| 46082_TS_DEWT_122002.nc | 23-Dec-2024 22:51 | 993546 | ||
| 46082_TS_DEWT_122003.nc | 23-Dec-2024 22:53 | 913926 | ||
| 46082_TS_DEWT_122005.nc | 23-Dec-2024 22:56 | 1142998 | ||
| 46082_TS_DEWT_122006.nc | 23-Dec-2024 22:58 | 995270 | ||
| 46082_TS_DEWT_122007.nc | 23-Dec-2024 23:00 | 995755 | ||
| 46082_TS_DEWT_122009.nc | 23-Dec-2024 23:03 | 995851 | ||
| 46082_TS_DEWT_122011.nc | 23-Dec-2024 23:06 | 1143350 | ||
| 46082_TS_DEWT_122014.nc | 23-Dec-2024 23:10 | 994623 | ||
| 46082_TS_DEWT_122015.nc | 23-Dec-2024 23:12 | 996210 | ||
| 46082_TS_DEWT_122019.nc | 23-Dec-2024 23:17 | 996185 | ||
| 46082_TS_DEWT_122021.nc | 23-Dec-2024 23:20 | 1143618 | ||
| 46082_TS_DEWT_122022.nc | 23-Dec-2024 23:22 | 1143321 | ||
| 46082_TS_DEWT_122023.nc | 23-Dec-2024 23:26 | 1143217 | ||
| 46082_TS_DEWT_122025.nc | 01-Jan-2026 06:48 | 1143655 | ||